createdAt,value
2018-02-16T00:01:55.398Z,6.10
2018-02-16T00:04:22.905Z,5.77
2018-02-16T00:06:50.440Z,5.60
2018-02-16T00:09:18.725Z,5.60
2018-02-16T00:11:46.265Z,5.60
2018-02-16T00:14:13.761Z,5.87
2018-02-16T00:16:41.249Z,5.57
2018-02-16T00:19:08.759Z,6.27
2018-02-16T00:21:36.256Z,5.60
2018-02-16T00:24:03.776Z,6.47
2018-02-16T00:26:31.281Z,5.93
2018-02-16T00:28:58.808Z,6.00
2018-02-16T00:31:26.839Z,5.47
2018-02-16T00:33:54.320Z,6.17
2018-02-16T00:36:21.808Z,5.80
2018-02-16T00:38:49.314Z,5.47
2018-02-16T00:41:16.833Z,5.90
2018-02-16T00:43:44.322Z,6.00
2018-02-16T00:46:11.820Z,5.97
2018-02-16T00:48:39.342Z,6.70
2018-02-16T00:51:06.845Z,6.63
2018-02-16T00:53:35.108Z,6.83
2018-02-16T00:56:02.651Z,6.10
2018-02-16T00:58:30.148Z,6.33
2018-02-16T01:00:57.699Z,6.17
2018-02-16T01:03:25.230Z,7.23
2018-02-16T01:05:52.768Z,6.53
2018-02-16T01:08:20.299Z,6.23
2018-02-16T01:10:48.570Z,6.67
2018-02-16T01:13:16.072Z,6.20
2018-02-16T01:15:43.579Z,7.57
2018-02-16T01:18:11.859Z,6.47
2018-02-16T01:20:39.405Z,6.50
2018-02-16T01:23:06.892Z,6.73
2018-02-16T01:25:34.452Z,6.87
2018-02-16T01:28:01.996Z,6.60
2018-02-16T01:30:29.497Z,7.40
2018-02-16T01:32:57.032Z,7.10
2018-02-16T01:35:25.295Z,6.87
2018-02-16T01:37:52.818Z,7.27
2018-02-16T01:40:20.324Z,7.87
2018-02-16T01:42:48.607Z,7.53
2018-02-16T01:45:16.115Z,8.10
2018-02-16T01:47:43.618Z,7.23
2018-02-16T01:50:11.164Z,8.43
2018-02-16T01:52:38.657Z,6.87
2018-02-16T01:55:06.217Z,7.30
2018-02-16T01:57:33.762Z,7.57
2018-02-16T02:00:02.031Z,8.13
2018-02-16T02:02:29.529Z,7.20
2018-02-16T02:04:57.047Z,7.87
2018-02-16T02:07:24.550Z,8.80
2018-02-16T02:09:52.806Z,7.67
2018-02-16T02:12:20.334Z,7.30
2018-02-16T02:14:47.868Z,7.30
2018-02-16T02:17:15.769Z,7.10
2018-02-16T02:19:43.290Z,7.57
2018-02-16T02:22:10.780Z,7.40
2018-02-16T02:24:38.278Z,7.60
2018-02-16T02:27:05.794Z,7.03
2018-02-16T02:29:33.296Z,6.43
2018-02-16T02:32:00.794Z,7.30
2018-02-16T02:34:28.286Z,7.00
2018-02-16T02:36:57.328Z,6.93
2018-02-16T02:39:24.829Z,6.73
2018-02-16T02:41:52.337Z,7.13
2018-02-16T02:44:19.840Z,7.37
2018-02-16T02:46:47.362Z,7.03
2018-02-16T02:49:14.878Z,7.67
2018-02-16T02:51:42.408Z,7.63
2018-02-16T02:54:09.931Z,8.10
2018-02-16T02:56:37.447Z,8.10
2018-02-16T02:59:04.965Z,8.57
2018-02-16T03:01:32.469Z,8.97
2018-02-16T03:03:59.978Z,8.67
2018-02-16T03:06:34.275Z,8.60
2018-02-16T03:09:01.781Z,8.20
2018-02-16T03:11:29.265Z,9.10
2018-02-16T03:13:56.772Z,9.70
2018-02-16T03:16:24.343Z,8.77
2018-02-16T03:18:51.868Z,9.00
2018-02-16T03:21:19.357Z,8.63
2018-02-16T03:23:46.855Z,9.17
2018-02-16T03:26:14.351Z,7.87
2018-02-16T03:28:41.854Z,9.30
2018-02-16T03:31:09.387Z,8.20
2018-02-16T03:33:36.875Z,9.37
2018-02-16T03:36:04.363Z,9.40
2018-02-16T03:38:31.896Z,8.63
2018-02-16T03:40:59.380Z,8.80
2018-02-16T03:43:26.941Z,9.00
2018-02-16T03:45:54.473Z,7.87
2018-02-16T03:48:21.985Z,8.73
2018-02-16T03:50:49.483Z,8.50
2018-02-16T03:53:16.980Z,9.40
2018-02-16T03:55:44.480Z,8.90
2018-02-16T03:58:11.976Z,8.73
2018-02-16T04:00:39.491Z,8.80
2018-02-16T04:03:07.015Z,8.33
2018-02-16T04:05:34.524Z,8.53
2018-02-16T04:08:02.056Z,8.20
2018-02-16T04:10:29.566Z,8.17
2018-02-16T04:12:57.144Z,8.97
2018-02-16T04:15:24.659Z,7.90
2018-02-16T04:17:52.934Z,8.23
2018-02-16T04:20:20.422Z,7.50
2018-02-16T04:22:47.934Z,8.20
2018-02-16T04:25:15.420Z,8.33
2018-02-16T04:27:43.730Z,8.53
2018-02-16T04:30:11.224Z,8.00
2018-02-16T04:32:38.731Z,8.37
2018-02-16T04:35:08.203Z,8.43
2018-02-16T04:37:35.702Z,7.90
2018-02-16T04:40:03.208Z,8.60
2018-02-16T04:42:30.757Z,8.60
2018-02-16T04:44:58.349Z,8.70
2018-02-16T04:47:25.842Z,7.83
2018-02-16T04:49:53.356Z,8.03
2018-02-16T04:52:20.867Z,8.77
2018-02-16T04:54:48.359Z,8.70
2018-02-16T04:57:17.464Z,8.13
2018-02-16T04:59:44.976Z,8.10
2018-02-16T05:02:12.470Z,8.33
2018-02-16T05:04:39.973Z,8.50
2018-02-16T05:07:07.498Z,9.27
2018-02-16T05:09:35.022Z,8.27
2018-02-16T05:12:02.541Z,8.80
2018-02-16T05:14:30.055Z,8.67
2018-02-16T05:16:57.552Z,7.80
2018-02-16T05:19:25.047Z,8.17
2018-02-16T05:21:52.579Z,7.97
2018-02-16T05:24:20.072Z,7.77
2018-02-16T05:26:47.584Z,8.03
2018-02-16T05:29:15.087Z,8.27
2018-02-16T05:31:42.590Z,8.83
2018-02-16T05:34:10.110Z,8.00
2018-02-16T05:36:37.615Z,8.40
2018-02-16T05:39:05.105Z,8.60
2018-02-16T05:41:33.380Z,8.10
2018-02-16T05:44:00.912Z,7.77
2018-02-16T05:46:28.430Z,8.07
2018-02-16T05:48:55.957Z,7.50
2018-02-16T05:51:23.465Z,7.77
2018-02-16T05:53:50.987Z,7.63
2018-02-16T05:56:19.256Z,6.80
2018-02-16T05:58:46.783Z,7.30
2018-02-16T06:01:14.298Z,7.77
2018-02-16T06:03:41.806Z,7.93
2018-02-16T06:06:09.325Z,7.17
2018-02-16T06:08:36.896Z,7.40
2018-02-16T06:11:05.319Z,6.87
2018-02-16T06:13:32.861Z,6.87
2018-02-16T06:16:00.418Z,6.67
2018-02-16T06:18:27.931Z,7.10
2018-02-16T06:20:55.454Z,7.80
2018-02-16T06:23:22.957Z,7.00
2018-02-16T06:25:50.497Z,7.00
2018-02-16T06:28:18.034Z,7.03
2018-02-16T06:30:45.580Z,6.53
2018-02-16T06:33:13.108Z,6.83
2018-02-16T06:35:40.623Z,6.33
2018-02-16T06:38:08.126Z,6.73
2018-02-16T06:40:35.679Z,6.10
2018-02-16T06:43:03.205Z,7.23
2018-02-16T06:45:30.743Z,7.57
2018-02-16T06:47:58.377Z,6.50
2018-02-16T06:50:25.893Z,6.40
2018-02-16T06:52:53.451Z,6.80
2018-02-16T06:55:20.949Z,6.87
2018-02-16T06:57:48.508Z,7.00
2018-02-16T07:00:16.052Z,6.50
2018-02-16T07:02:44.375Z,6.00
2018-02-16T07:05:11.874Z,6.97
2018-02-16T07:07:39.415Z,6.73
2018-02-16T07:10:06.928Z,6.57
2018-02-16T07:12:34.425Z,6.83
2018-02-16T07:15:01.970Z,7.10
2018-02-16T07:17:29.465Z,7.10
2018-02-16T07:19:56.968Z,6.93
2018-02-16T07:22:24.482Z,7.20
2018-02-16T07:24:51.987Z,6.50
2018-02-16T07:27:19.492Z,6.57
2018-02-16T07:29:47.034Z,6.70
2018-02-16T07:32:14.556Z,6.07
2018-02-16T07:34:42.822Z,6.77
2018-02-16T07:37:10.325Z,6.47
2018-02-16T07:39:37.857Z,6.30
2018-02-16T07:42:06.130Z,6.83
2018-02-16T07:44:33.633Z,6.00
2018-02-16T07:47:01.145Z,6.57
2018-02-16T07:49:28.683Z,7.30
2018-02-16T07:51:56.230Z,7.10
2018-02-16T07:54:23.780Z,6.40
2018-02-16T07:56:51.289Z,7.30
2018-02-16T07:59:19.551Z,6.70
2018-02-16T08:01:47.113Z,6.33
2018-02-16T08:04:14.633Z,6.90
2018-02-16T08:06:42.200Z,7.00
2018-02-16T08:09:09.802Z,6.80
2018-02-16T08:11:38.102Z,6.80
2018-02-16T08:14:05.752Z,6.93
2018-02-16T08:16:33.252Z,6.47
2018-02-16T08:19:00.800Z,6.40
2018-02-16T08:21:28.290Z,6.30
2018-02-16T08:23:55.807Z,6.40
2018-02-16T08:26:23.326Z,6.20
2018-02-16T08:28:51.619Z,6.57
2018-02-16T08:31:19.907Z,6.77
2018-02-16T08:33:47.398Z,5.87
2018-02-16T08:36:14.936Z,6.67
2018-02-16T08:38:42.456Z,6.57
2018-02-16T08:41:10.005Z,6.33
2018-02-16T08:43:37.524Z,6.60
2018-02-16T08:46:05.040Z,6.77
2018-02-16T08:48:32.654Z,6.40
2018-02-16T08:51:00.178Z,5.53
2018-02-16T08:53:27.687Z,6.73
2018-02-16T08:55:55.185Z,7.13
2018-02-16T08:58:22.848Z,6.23
2018-02-16T09:00:50.385Z,5.83
2018-02-16T09:03:17.926Z,6.33
2018-02-16T09:05:45.424Z,5.40
2018-02-16T09:08:12.938Z,6.20
2018-02-16T09:10:40.470Z,6.20
2018-02-16T09:13:07.983Z,6.60
2018-02-16T09:15:35.552Z,5.67
2018-02-16T09:18:03.137Z,5.60
2018-02-16T09:20:30.669Z,7.07
2018-02-16T09:22:58.180Z,6.10
2018-02-16T09:25:26.478Z,5.93
2018-02-16T09:27:53.972Z,6.13
2018-02-16T09:30:21.523Z,6.20
2018-02-16T09:32:49.101Z,6.60
2018-02-16T09:35:16.606Z,6.17
2018-02-16T09:37:44.286Z,6.40
2018-02-16T09:40:11.822Z,5.93
2018-02-16T09:42:39.320Z,6.20
2018-02-16T09:45:06.894Z,6.20
2018-02-16T09:47:34.407Z,5.47
2018-02-16T09:50:01.976Z,5.70
2018-02-16T09:52:29.609Z,5.90
2018-02-16T09:55:00.740Z,5.90
2018-02-16T09:57:28.252Z,6.10
2018-02-16T09:59:55.749Z,5.63
2018-02-16T10:02:23.267Z,5.67
2018-02-16T10:04:50.778Z,6.30
2018-02-16T10:07:18.276Z,5.93
2018-02-16T10:09:45.792Z,5.53
2018-02-16T10:12:13.366Z,5.50
2018-02-16T10:14:40.870Z,6.10
2018-02-16T10:17:08.370Z,6.10
2018-02-16T10:19:35.934Z,6.03
2018-02-16T10:22:03.435Z,6.07
2018-02-16T10:24:31.704Z,5.63
2018-02-16T10:26:59.989Z,4.83
2018-02-16T10:29:27.494Z,5.63
2018-02-16T10:31:54.996Z,5.90
2018-02-16T10:34:23.266Z,5.63
2018-02-16T10:36:50.822Z,5.23
2018-02-16T10:39:18.352Z,6.00
2018-02-16T10:41:45.853Z,5.43
2018-02-16T10:44:13.378Z,6.27
2018-02-16T10:46:41.023Z,5.03
2018-02-16T10:49:08.516Z,4.47
2018-02-16T10:51:36.099Z,5.87
2018-02-16T10:54:04.004Z,5.30
2018-02-16T10:56:32.263Z,5.60
2018-02-16T10:58:59.806Z,5.03
2018-02-16T11:01:27.354Z,4.63
2018-02-16T11:03:58.893Z,4.53
2018-02-16T11:06:31.959Z,4.90
2018-02-16T11:09:05.178Z,4.23
2018-02-16T11:11:32.687Z,5.03
2018-02-16T11:14:00.186Z,4.60
2018-02-16T11:16:27.712Z,5.10
2018-02-16T11:18:55.225Z,4.80
2018-02-16T11:21:22.768Z,4.57
2018-02-16T11:23:50.351Z,4.93
2018-02-16T11:26:17.872Z,5.37
2018-02-16T11:28:45.384Z,4.00
2018-02-16T11:31:13.800Z,4.30
2018-02-16T11:33:41.308Z,4.63
2018-02-16T11:36:08.845Z,5.50
2018-02-16T11:38:36.340Z,4.93
2018-02-16T11:41:04.671Z,5.00
2018-02-16T11:43:32.193Z,5.30
2018-02-16T11:46:00.490Z,4.53
2018-02-16T11:48:28.071Z,4.67
2018-02-16T11:50:55.636Z,4.80
2018-02-16T11:53:23.137Z,4.93
2018-02-16T11:55:50.670Z,5.37
2018-02-16T11:58:18.165Z,5.43
2018-02-16T12:00:46.500Z,5.77
2018-02-16T12:03:14.039Z,4.93
2018-02-16T12:05:41.570Z,4.90
2018-02-16T12:08:09.109Z,4.27
2018-02-16T12:10:36.608Z,4.43
2018-02-16T12:13:04.104Z,4.50
2018-02-16T12:15:31.674Z,4.53
2018-02-16T12:17:59.169Z,4.87
2018-02-16T12:20:26.679Z,4.70
2018-02-16T12:22:54.203Z,4.60
2018-02-16T12:25:21.704Z,4.37
2018-02-16T12:27:49.202Z,4.20
2018-02-16T12:30:17.496Z,4.37
2018-02-16T12:32:45.042Z,3.90
2018-02-16T12:35:13.379Z,4.73
2018-02-16T12:37:40.942Z,4.97
2018-02-16T12:40:08.442Z,4.50
2018-02-16T12:42:35.994Z,4.60
2018-02-16T12:45:03.504Z,4.70
2018-02-16T12:47:31.068Z,3.90
2018-02-16T12:49:58.560Z,4.23
2018-02-16T12:52:26.061Z,4.70
2018-02-16T12:54:53.581Z,3.90
2018-02-16T12:57:21.077Z,4.13
2018-02-16T12:59:48.589Z,3.60
2018-02-16T13:02:16.105Z,4.00
2018-02-16T13:04:43.683Z,5.17
2018-02-16T13:07:11.248Z,6.10
2018-02-16T13:09:38.789Z,4.63
2018-02-16T13:12:06.340Z,4.63
2018-02-16T13:14:33.848Z,4.57
2018-02-16T13:17:01.351Z,4.03
2018-02-16T13:19:28.874Z,4.57
2018-02-16T13:21:56.379Z,3.57
2018-02-16T13:24:23.869Z,4.53
2018-02-16T13:26:51.406Z,4.07
2018-02-16T13:29:18.897Z,3.60
2018-02-16T13:31:46.466Z,3.67
2018-02-16T13:34:13.965Z,3.60
2018-02-16T13:36:42.249Z,3.90
2018-02-16T13:39:10.064Z,3.90
2018-02-16T13:41:37.579Z,3.30
2018-02-16T13:44:05.856Z,4.13
2018-02-16T13:46:33.376Z,4.07
2018-02-16T13:49:00.906Z,3.50
2018-02-16T13:51:28.386Z,4.00
2018-02-16T13:53:55.885Z,4.07
2018-02-16T13:56:23.382Z,3.70
2018-02-16T13:58:50.882Z,4.30
2018-02-16T14:01:18.386Z,4.30
2018-02-16T14:03:45.894Z,3.90
2018-02-16T14:06:13.395Z,3.50
2018-02-16T14:08:40.920Z,3.83
2018-02-16T14:11:08.438Z,4.10
2018-02-16T14:13:35.932Z,4.40
2018-02-16T14:16:03.435Z,3.53
2018-02-16T14:18:30.948Z,4.20
2018-02-16T14:20:58.438Z,4.77
2018-02-16T14:23:26.695Z,5.40
2018-02-16T14:25:54.194Z,5.00
2018-02-16T14:28:21.720Z,4.23
2018-02-16T14:30:49.233Z,4.50
2018-02-16T14:33:16.734Z,4.30
2018-02-16T14:35:44.256Z,4.40
2018-02-16T14:38:11.774Z,4.67
2018-02-16T14:40:39.274Z,4.90
2018-02-16T14:43:06.781Z,4.23
2018-02-16T14:45:34.276Z,4.43
2018-02-16T14:48:01.783Z,3.83
2018-02-16T14:50:29.272Z,4.10
2018-02-16T14:52:56.766Z,4.17
2018-02-16T14:55:24.273Z,3.70
2018-02-16T14:57:51.793Z,3.73
2018-02-16T15:00:19.329Z,4.07
2018-02-16T15:02:47.593Z,4.20
2018-02-16T15:05:15.183Z,4.10
2018-02-16T15:07:42.685Z,4.23
2018-02-16T15:10:10.221Z,4.10
2018-02-16T15:12:37.711Z,4.17
2018-02-16T15:15:05.201Z,3.13
2018-02-16T15:17:32.721Z,3.90
2018-02-16T15:20:00.227Z,3.87
2018-02-16T15:22:28.493Z,3.90
2018-02-16T15:24:55.986Z,3.77
2018-02-16T15:27:23.536Z,3.33
2018-02-16T15:29:51.046Z,3.93
2018-02-16T15:32:18.631Z,3.77
2018-02-16T15:34:46.173Z,3.90
2018-02-16T15:37:13.703Z,3.70
2018-02-16T15:39:41.194Z,3.50
2018-02-16T15:42:08.716Z,3.60
2018-02-16T15:44:36.197Z,3.70
2018-02-16T15:47:03.692Z,3.63
2018-02-16T15:49:31.192Z,3.10
2018-02-16T15:51:58.733Z,3.90
2018-02-16T15:54:27.023Z,3.40
2018-02-16T15:56:54.539Z,3.23
2018-02-16T15:59:22.022Z,3.40
2018-02-16T16:01:50.310Z,3.37
2018-02-16T16:04:17.861Z,3.40
2018-02-16T16:06:46.131Z,3.33
2018-02-16T16:09:13.632Z,3.00
2018-02-16T16:11:41.116Z,3.10
2018-02-16T16:14:08.624Z,2.93
2018-02-16T16:16:36.145Z,3.07
2018-02-16T16:19:03.616Z,3.10
2018-02-16T16:21:31.108Z,3.00
2018-02-16T16:23:58.615Z,3.00
2018-02-16T16:26:26.114Z,3.00
2018-02-16T16:28:53.632Z,3.17
2018-02-16T16:31:21.114Z,3.10
2018-02-16T16:33:48.600Z,3.50
2018-02-16T16:36:16.115Z,3.47
2018-02-16T16:38:43.595Z,3.27
2018-02-16T16:41:11.843Z,3.40
2018-02-16T16:43:39.342Z,3.00
2018-02-16T16:46:07.594Z,3.23
2018-02-16T16:48:35.098Z,2.90
2018-02-16T16:51:02.595Z,2.93
2018-02-16T16:53:30.108Z,3.40
2018-02-16T16:55:58.398Z,3.47
2018-02-16T16:58:25.889Z,3.33
2018-02-16T17:00:53.419Z,3.60
2018-02-16T17:03:20.919Z,3.97
2018-02-16T17:05:48.412Z,3.40
2018-02-16T17:08:16.711Z,3.40
2018-02-16T17:10:44.202Z,3.37
2018-02-16T17:13:11.707Z,3.17
2018-02-16T17:15:40.009Z,3.80
2018-02-16T17:18:07.532Z,3.40
2018-02-16T17:20:35.109Z,3.37
2018-02-16T17:23:03.482Z,3.40
2018-02-16T17:25:31.069Z,3.60
2018-02-16T17:27:58.584Z,2.93
2018-02-16T17:30:26.078Z,3.10
2018-02-16T17:32:53.658Z,3.07
2018-02-16T17:35:21.166Z,3.50
2018-02-16T17:43:41.029Z,6.30
2018-02-16T17:46:09.235Z,5.60
2018-02-16T17:48:39.573Z,4.93
2018-02-16T17:51:07.077Z,5.20
2018-02-16T17:53:35.441Z,4.70
2018-02-16T17:56:02.948Z,6.70
2018-02-16T17:58:30.550Z,8.03
2018-02-16T18:00:59.232Z,10.17
2018-02-16T18:03:26.727Z,8.43
2018-02-16T18:05:54.401Z,7.80
2018-02-16T18:08:22.974Z,8.83
2018-02-16T18:10:50.972Z,10.93
2018-02-16T18:13:21.047Z,11.10
2018-02-16T18:15:48.557Z,11.13
2018-02-16T18:18:16.063Z,11.17
2018-02-16T18:20:43.555Z,10.37
2018-02-16T18:23:11.068Z,10.73
2018-02-16T18:25:38.581Z,10.90
2018-02-16T18:28:06.874Z,11.63
2018-02-16T18:30:34.436Z,12.07
2018-02-16T18:33:01.932Z,10.27
2018-02-16T18:35:29.419Z,10.63
2018-02-16T18:37:57.699Z,9.40
2018-02-16T18:40:25.969Z,8.97
2018-02-16T18:42:53.452Z,8.63
2018-02-16T18:45:21.084Z,8.30
2018-02-16T18:47:48.555Z,6.90
2018-02-16T18:50:16.067Z,7.23
2018-02-16T18:52:43.569Z,8.90
2018-02-16T18:55:11.843Z,7.00
2018-02-16T18:57:39.332Z,7.77
2018-02-16T19:00:06.854Z,9.13
2018-02-16T19:02:34.330Z,8.40
2018-02-16T19:05:01.865Z,10.03
2018-02-16T19:07:29.445Z,9.47
2018-02-16T19:09:56.996Z,10.70
2018-02-16T19:12:26.032Z,9.73
2018-02-16T19:14:53.516Z,8.17
2018-02-16T19:17:21.038Z,7.77
2018-02-16T19:19:49.284Z,6.73
2018-02-16T19:22:16.763Z,7.77
2018-02-16T19:24:44.272Z,7.63
2018-02-16T19:27:11.760Z,8.07
2018-02-16T19:29:39.254Z,7.97
2018-02-16T19:32:07.607Z,9.33
2018-02-16T19:34:35.268Z,13.33
2018-02-16T19:37:02.992Z,12.23
2018-02-16T19:39:30.566Z,10.77
2018-02-16T19:41:58.367Z,18.80
2018-02-16T19:44:26.937Z,21.93
2018-02-16T19:46:54.500Z,17.13
2018-02-16T19:49:22.328Z,10.37
2018-02-16T19:51:50.126Z,9.70
2018-02-16T19:54:17.690Z,9.97
2018-02-16T19:56:45.192Z,9.57
2018-02-16T19:59:13.688Z,13.73
2018-02-16T20:01:41.537Z,11.50
2018-02-16T20:04:09.360Z,12.37
2018-02-16T20:06:38.047Z,12.57
2018-02-16T20:09:05.579Z,14.87
2018-02-16T20:11:33.077Z,11.73
2018-02-16T20:14:00.586Z,14.40
2018-02-16T20:16:28.384Z,12.83
2018-02-16T20:18:56.734Z,13.63
2018-02-16T20:21:25.012Z,13.27
2018-02-16T20:23:52.773Z,13.43
2018-02-16T20:26:20.602Z,13.33
2018-02-16T20:28:48.494Z,13.47
2018-02-16T20:31:16.317Z,14.50
2018-02-16T20:33:44.103Z,15.03
2018-02-16T20:36:11.869Z,14.20
2018-02-16T20:38:39.413Z,13.17
2018-02-16T20:41:06.926Z,12.60
2018-02-16T20:43:35.211Z,14.40
2018-02-16T20:46:02.906Z,12.07
2018-02-16T20:48:30.591Z,11.60
2018-02-16T20:50:59.002Z,10.27
2018-02-16T20:53:27.277Z,11.07
2018-02-16T20:55:56.323Z,10.90
2018-02-16T20:58:23.868Z,9.90
2018-02-16T21:00:51.398Z,11.40
2018-02-16T21:03:18.978Z,13.27
2018-02-16T21:05:46.514Z,12.43
2018-02-16T21:08:14.792Z,11.07
2018-02-16T21:10:42.336Z,10.77
2018-02-16T21:13:09.833Z,10.43
2018-02-16T21:15:38.246Z,10.17
2018-02-16T21:18:06.107Z,9.47
2018-02-16T21:20:34.101Z,10.43
2018-02-16T21:23:02.429Z,10.97
2018-02-16T21:25:32.928Z,10.63
2018-02-16T21:28:00.885Z,12.20
2018-02-16T21:30:28.388Z,12.47
2018-02-16T21:32:55.915Z,12.57
2018-02-16T21:35:23.562Z,11.73
2018-02-16T21:37:51.199Z,13.30
2018-02-16T21:40:19.022Z,13.50
2018-02-16T21:42:46.858Z,12.47
2018-02-16T21:45:14.377Z,11.63
2018-02-16T21:47:41.905Z,11.97
2018-02-16T21:50:09.485Z,12.57
2018-02-16T21:52:37.007Z,12.37
2018-02-16T21:55:04.552Z,13.93
2018-02-16T21:57:32.206Z,13.03
2018-02-16T22:00:00.391Z,13.53
2018-02-16T22:02:27.940Z,13.83
2018-02-16T22:04:55.635Z,15.03
2018-02-16T22:07:23.160Z,17.23
2018-02-16T22:09:50.678Z,15.03
2018-02-16T22:12:18.286Z,15.00
2018-02-16T22:14:45.995Z,14.67
2018-02-16T22:17:13.551Z,14.47
2018-02-16T22:19:41.085Z,14.40
2018-02-16T22:22:08.606Z,12.83
2018-02-16T22:24:36.146Z,10.77
2018-02-16T22:27:04.405Z,10.07
2018-02-16T22:29:31.893Z,13.87
2018-02-16T22:31:59.425Z,18.10
2018-02-16T22:34:26.950Z,20.10
2018-02-16T22:36:54.453Z,18.87
2018-02-16T22:39:22.689Z,18.23
2018-02-16T22:41:50.213Z,17.77
2018-02-16T22:44:18.531Z,18.67
2018-02-16T22:46:46.044Z,17.73
2018-02-16T22:49:14.313Z,16.77
2018-02-16T22:51:41.817Z,16.20
2018-02-16T22:54:09.363Z,15.47
2018-02-16T22:56:36.877Z,16.17
2018-02-16T22:59:04.389Z,16.00
2018-02-16T23:01:31.916Z,15.47
2018-02-16T23:03:59.490Z,14.90
2018-02-16T23:06:27.808Z,14.63
2018-02-16T23:08:55.397Z,13.83
2018-02-16T23:11:22.925Z,13.17
2018-02-16T23:13:50.482Z,13.47
2018-02-16T23:16:18.044Z,13.63
2018-02-16T23:18:45.544Z,13.60
2018-02-16T23:21:13.136Z,13.70
2018-02-16T23:23:40.648Z,12.43
2018-02-16T23:26:08.164Z,13.23
2018-02-16T23:28:36.448Z,13.37
2018-02-16T23:31:03.950Z,11.67
2018-02-16T23:33:31.440Z,12.87
2018-02-16T23:35:59.768Z,12.87
2018-02-16T23:38:27.279Z,12.90
2018-02-16T23:40:55.563Z,12.77
2018-02-16T23:43:23.009Z,11.07
2018-02-16T23:45:50.522Z,9.63
2018-02-16T23:48:18.030Z,8.80
2018-02-16T23:50:45.544Z,9.83
2018-02-16T23:53:13.807Z,9.53
2018-02-16T23:55:41.346Z,10.00
2018-02-16T23:58:08.851Z,9.27
